Detall de PIREP

Printer-friendly versionPDF version

[2012/11/04 14:37:00]
Flight IATA:CT1005
Pilot Number:037
Company ICAO:CAT
Aircraft Type:B752/E
PAX:150
Aircraft Registration:PAX
Departing Airport: EHAM
Destination Airport: LECO
Alternate Airport:LEMD
Online: VATSIM
Route:LEKKO UN872 VES UM190 ROXER
Flight Level:F270
No Slew and time accel
No pause
Crash detect
Detect pilot in Cockpit between each 30 and 45 minutes
14:37 Zero fuel Weight: 167287 Lbs, Fuel Weight: 40052 Lbs
14:37 VATSIM:EHAM 041325Z 11009KT 070V130 9999 RA FEW011 SCT020 BKN033 07/06 Q0994 TEMPO 5000 BKN012
14:37 VATSIM:LECO 041330Z 29007KT 240V350 9999 SCT035 15/05 Q1009
14:39 Parking Brakes off
14:46 Take-off
14:46 Take off Weight: 206277 Lbs
14:46 Wind: 132º @ 008 Knots Heading: 182º
14:46 POS N52º 17´ 58´´ E004º 46´ 41´´
14:47 Gear Up: 195 Knots
14:47 Flaps:2 at 195 Knots
14:47 Flaps:1 at 202 Knots
14:47 Flaps:0 at 221 Knots
15:00 TOC
15:00 Fuel Weight: 35320 Lb
15:02 Wind:225º@054 Knots Heading: 201º Ground Speed: 437 Knots Altitude 26420 ft
15:17 Wind:233º@063 Knots Heading: 243º Ground Speed: 425 Knots Altitude 26525 ft
15:32 Wind:233º@053 Knots Heading: 237º Ground Speed: 433 Knots Altitude 26558 ft
15:47 Wind:234º@052 Knots Heading: 229º Ground Speed: 429 Knots Altitude 26594 ft
16:02 Wind:263º@041 Knots Heading: 231º Ground Speed: 451 Knots Altitude 26620 ft
16:17 Wind:276º@093 Knots Heading: 219º Ground Speed: 443 Knots Altitude 26797 ft
16:27 TOD
16:27 Fuel Weight: 20173 Lb
16:32 Wind:270º@042 Knots Heading: 252º Ground Speed: 343 Knots Altitude 19622 ft
16:47 Wind:269º@014 Knots Heading: 283º Ground Speed: 229 Knots Altitude 4511 ft
16:47 Flaps:1 at 216 Knots
16:49 Flaps:2 at 201 Knots
16:51 Flaps:3 at 175 Knots
16:51 Gear Down: 161 Knots
16:52 Flaps:4 at 153 Knots
16:53 Flaps:5 at 147 Knots
16:53 Flaps:6 at 146 Knots
16:54 TouchDown:Rate -253 ft/min Speed: 138 Knots
16:54 VATSIM:LECO 041600Z 27008KT 230V320 9999 FEW025 FEW028CB BKN030 15/05 Q1009
16:54 Land
16:54 Wind:307º@008 Knots
16:54 Heading: 213º
16:54 Flight Duration: 02:08
16:54 Landing Weight: 185331 Lbs
16:54 POS N43º 17´ 59´´ W008º 22´ 44´´
17:01 Parking brakes on
17:01 Block to Block Duration: 02:22
17:01 Final Fuel: 17482 Lbls
17:01 Spent Fuel: 22570 Lbls
17:01 Flight Length: 711 NM
17:01 TOD Land Length: 117 NM

Exportar CSV

Powered by Drupal - Modified by Danger4k